• Join FlightAware (Why Join?)
  • Login
  • US Flag 
02:54PM EDT


 

Airport Tracker/Info


-or-


 

Live Flight TrackerFlight Track Log ✈ LMO5432 ✈ 05-May-2013 ✈ 2IS - KFXE

Flight Track Log - Related Links

Times and Time Zones

All times are in EDT time to prevent confusion due to time zone crossing. See the LMO5432 flight status page for this flight to view local times or setup timezone preferences in your user account.

Time Position Orientation Groundspeed Altitude Reporting Facility
EDT Latitude Longitude Course Direction KTS MPH feet Rate Location/Type
09:03PM 26.6064 -80.9319 140° Southeast 281 323 4,600  Level Miami Center
09:04PM 26.5433 -80.8717 139° Southeast 283 326 4,100 -420 Descending Miami Center
09:04PM 26.5128 -80.8406 138° Southeast 260 299 4,000 -120 Descending Miami Center
09:05PM 26.4906 -80.8167 136° Southeast 279 321 4,000  Level Miami Center
09:05PM 26.4558 -80.7806 137° Southeast 270 311 4,000  Level Miami Center
09:06PM 26.4417 -80.7661 138° Southeast 279 321 4,000  Level Miami Center
09:06PM 26.4033 -80.7208 133° Southeast 277 319 4,000  Level Miami Center
09:07PM 26.3936 -80.6903 110° East 268 308 4,000  Level Miami Center
09:07PM 26.3781 -80.6481 112° Southeast 274 315 4,000  Level Miami Center
09:08PM 26.3661 -80.6200 115° Southeast 268 308 4,000 -540 Level Miami Center
09:08PM 26.3464 -80.5731 115° Southeast 272 313 3,500 -900 Descending Miami Center
09:09PM 26.3328 -80.5356 112° Southeast 268 308 3,100 -540 Descending Miami Center
09:09PM 26.3150 -80.4956 116° Southeast 274 315 3,000 -120 Descending Miami Center
09:10PM 26.3053 -80.4650 110° East 273 314 3,000  Level Miami Center
09:10PM 26.2836 -80.4158 116° Southeast 272 313 3,000  Level Miami Center
09:11PM 26.2739 -80.3831 108° East 273 314 3,000 -420 Level Miami Center
09:11PM 26.2603 -80.3456 112° Southeast 251 289 2,600 -840 Descending Miami Center
09:12PM 26.2589 -80.3156 93° East 255 293 2,200 -900 Descending Miami Center
09:12PM 26.2306 -80.2731 127° Southeast 242 278 1,700 -720 Descending Miami Center
09:13PM 26.2289 -80.2497 95° East 248 285 1,500 -420 Descending Miami Center
09:13PM 26.2239 -80.2056 97° East 197 227 1,300 -360 Descending Miami Center
09:14PM 26.2294 -80.1433 84° East 208 239 1,000 -300 Descending Miami Center
09:15PM 26.2072 -80.1056 123° Southeast 170 196 800 -360 Descending Miami Center
09:16PM 26.1978 -80.1494 257° West 123 142 300 -480 Descending Miami Center
09:18PM 26.1973 -80.1707 227° Southwest  Level Estimated
09:25PM 26.1973 -80.1707 114° Southeast  Level Estimated